Time;durP1;ratioP1;P1;durP2;ratioP2;P2;SDS_P1;SDS_P2;PMS_P1;PMS_P2;Temp;Humidity;BMP_temperature;BMP_pressure;BME280_temperature;BME280_humidity;BME280_pressure;Samples;Min_cycle;Max_cycle;Signal;HPM_P1;HPM_P2
2021/03/07 00:08:40;;;;;;;1.60;0.67;;;11.30;99.90;;;;;;20550385;28;20203;-75
2021/03/07 00:18:55;;;;;;;3.40;1.63;;;11.40;99.90;;;;;;20552413;28;21337;-75
2021/03/07 00:28:59;;;;;;;1.40;1.30;;;11.50;99.90;;;;;;20613692;28;20278;-76
2021/03/07 00:39:01;;;;;;;1.37;0.90;;;11.30;99.90;;;;;;20613438;28;20230;-73
2021/03/07 00:49:19;;;;;;;11.57;2.20;;;11.20;99.90;;;;;;20607187;28;20317;-75
2021/03/07 00:59:23;;;;;;;0.67;0.67;;;11.20;99.90;;;;;;20623991;23;20222;-74
2021/03/07 01:09:26;;;;;;;2.47;0.90;;;11.30;99.90;;;;;;20532733;28;20226;-74
2021/03/07 01:19:37;;;;;;;4.63;1.33;;;11.20;99.90;;;;;;20530374;28;20223;-73
2021/03/07 01:29:41;;;;;;;7.83;1.60;;;11.30;99.90;;;;;;20531868;28;20211;-74
2021/03/07 01:39:44;;;;;;;1.23;1.13;;;11.30;99.90;;;;;;20531867;28;20599;-73
2021/03/07 01:49:58;;;;;;;1.50;1.40;;;11.30;99.90;;;;;;20536267;28;20286;-74
2021/03/07 02:00:01;;;;;;;3.80;0.53;;;11.10;99.90;;;;;;20544399;28;20678;-75
2021/03/07 02:10:07;;;;;;;1.20;1.10;;;11.10;99.90;;;;;;20545061;28;20192;-73
2021/03/07 02:20:22;;;;;;;3.50;1.57;;;10.90;99.90;;;;;;20544396;28;20247;-71
2021/03/07 02:30:26;;;;;;;0.43;0.43;;;11.00;99.90;;;;;;20544177;28;20428;-71
2021/03/07 02:40:31;;;;;;;0.23;0.13;;;10.70;99.90;;;;;;20541381;28;20379;-74
2021/03/07 02:50:46;;;;;;;9.10;0.73;;;10.60;99.90;;;;;;20540962;28;20665;-74
2021/03/07 03:00:54;;;;;;;2.67;0.57;;;10.80;99.90;;;;;;20539599;28;20851;-75
2021/03/07 03:10:58;;;;;;;0.43;0.33;;;10.80;99.90;;;;;;20539175;28;20204;-74
2021/03/07 03:21:09;;;;;;;0.73;0.73;;;10.80;99.90;;;;;;20537071;28;20227;-75
2021/03/07 03:31:13;;;;;;;2.73;0.63;;;10.90;99.90;;;;;;20540062;28;20354;-75
2021/03/07 03:41:17;;;;;;;2.80;0.87;;;10.80;99.90;;;;;;20536214;28;20646;-75
2021/03/07 03:51:34;;;;;;;1.80;1.10;;;10.70;99.90;;;;;;20535247;28;20327;-76
2021/03/07 04:01:38;;;;;;;1.33;0.90;;;10.80;99.90;;;;;;20536013;28;20795;-74
2021/03/07 04:11:42;;;;;;;1.37;1.17;;;10.70;99.90;;;;;;20535083;28;20530;-75
2021/03/07 04:21:51;;;;;;;1.60;0.43;;;10.80;99.90;;;;;;20534023;28;20284;-75
2021/03/07 04:31:55;;;;;;;0.97;0.83;;;10.80;99.90;;;;;;20533137;28;20726;-76
2021/03/07 04:41:59;;;;;;;0.43;0.43;;;10.70;99.90;;;;;;20533924;28;20240;-74
2021/03/07 04:52:13;;;;;;;1.40;0.70;;;10.80;99.90;;;;;;20532717;28;20561;-75
2021/03/07 05:02:16;;;;;;;0.20;0.20;;;10.90;99.90;;;;;;20567219;23;20470;-75
2021/03/07 05:12:19;;;;;;;0.20;0.10;;;10.80;99.90;;;;;;20532479;28;20736;-73
2021/03/07 05:22:37;;;;;;;0.67;0.67;;;10.90;99.90;;;;;;20580733;28;20538;-73
2021/03/07 05:32:41;;;;;;;1.30;1.07;;;11.00;99.90;;;;;;20610989;28;20203;-74
2021/03/07 05:42:43;;;;;;;1.13;1.03;;;10.90;99.90;;;;;;20627730;28;20377;-73
2021/03/07 05:53:00;;;;;;;0.47;0.47;;;10.80;99.90;;;;;;20610373;28;20552;-74
2021/03/07 06:03:02;;;;;;;0.30;0.30;;;11.00;99.90;;;;;;20610020;28;20250;-74
2021/03/07 06:13:10;;;;;;;0.33;0.33;;;10.90;99.90;;;;;;20610549;28;20191;-75
2021/03/07 06:23:35;;;;;;;2.33;1.73;;;10.90;99.90;;;;;;20554401;28;20332;-74
2021/03/07 06:33:39;;;;;;;1.67;1.10;;;11.10;99.90;;;;;;20530746;28;20773;-75
2021/03/07 06:43:41;;;;;;;0.90;0.90;;;11.30;99.90;;;;;;20543055;28;20240;-74
2021/03/07 06:53:45;;;;;;;3.27;2.57;;;11.40;99.90;;;;;;20541881;28;20530;-74
2021/03/07 07:03:57;;;;;;;1.37;1.30;;;11.40;99.90;;;;;;20543055;28;20757;-75
2021/03/07 07:14:00;;;;;;;2.40;0.87;;;11.30;99.90;;;;;;20541910;28;20604;-73
2021/03/07 07:24:09;;;;;;;0.30;0.27;;;11.40;99.90;;;;;;20598380;28;20689;-74
2021/03/07 07:34:15;;;;;;;0.50;0.50;;;11.70;99.90;;;;;;20619800;28;20828;-73
2021/03/07 07:44:28;;;;;;;4.33;0.90;;;11.90;99.90;;;;;;20616763;28;20247;-73
2021/03/07 07:54:49;;;;;;;0.90;0.90;;;12.20;99.90;;;;;;20616882;28;20566;-73
2021/03/07 08:04:52;;;;;;;0.53;0.53;;;12.30;99.90;;;;;;20615702;28;20239;-72
2021/03/07 08:14:56;;;;;;;2.80;1.03;;;12.20;99.90;;;;;;20615806;28;20277;-73
2021/03/07 08:24:58;;;;;;;5.63;1.87;;;12.00;99.90;;;;;;20545273;28;20358;-74
2021/03/07 08:35:20;;;;;;;2.00;1.80;;;11.70;99.90;;;;;;20535938;28;20226;-75
2021/03/07 08:45:24;;;;;;;0.67;0.67;;;11.40;99.90;;;;;;20534897;28;20224;-74
2021/03/07 08:55:27;;;;;;;1.33;1.27;;;11.30;99.90;;;;;;20532480;28;20539;-73
2021/03/07 09:05:32;;;;;;;1.50;0.87;;;11.30;99.90;;;;;;20533678;28;20251;-72
2021/03/07 09:15:37;;;;;;;0.77;0.77;;;11.40;99.90;;;;;;20528905;28;20199;-73
2021/03/07 09:25:49;;;;;;;1.13;0.97;;;11.80;99.90;;;;;;20603431;28;20492;-73
2021/03/07 09:36:11;;;;;;;2.87;1.57;;;12.30;99.90;;;;;;20611972;28;20206;-75
2021/03/07 09:46:14;;;;;;;1.20;0.67;;;13.10;99.90;;;;;;20610282;28;20259;-75
2021/03/07 09:56:27;;;;;;;1.93;1.83;;;13.80;99.90;;;;;;20607933;28;20206;-73
2021/03/07 10:06:31;;;;;;;7.73;1.13;;;14.40;99.90;;;;;;20607062;28;20241;-74
2021/03/07 10:16:36;;;;;;;2.03;1.03;;;14.60;99.90;;;;;;20625003;28;20598;-73
2021/03/07 10:26:40;;;;;;;1.47;1.00;;;15.30;99.90;;;;;;20542651;28;20298;-73
2021/03/07 10:36:43;;;;;;;3.63;0.57;;;15.90;99.90;;;;;;20543181;28;20200;-73
2021/03/07 10:46:46;;;;;;;1.70;1.60;;;15.50;99.90;;;;;;20541345;28;20268;-74
2021/03/07 10:56:58;;;;;;;1.70;0.90;;;15.40;99.90;;;;;;20555692;28;20201;-72
2021/03/07 11:07:01;;;;;;;4.43;1.10;;;15.60;99.90;;;;;;20538895;28;20228;-74
2021/03/07 11:17:05;;;;;;;0.87;0.83;;;15.70;99.90;;;;;;20545689;28;20550;-74
2021/03/07 11:27:08;;;;;;;1.67;1.47;;;16.00;99.90;;;;;;20616238;28;20207;-74
2021/03/07 11:37:12;;;;;;;4.03;2.10;;;15.90;99.90;;;;;;20618367;28;20203;-73
2021/03/07 11:47:14;;;;;;;1.07;0.73;;;15.70;99.90;;;;;;20615004;28;20366;-72
2021/03/07 11:57:18;;;;;;;1.13;0.90;;;16.20;99.90;;;;;;20555825;28;20196;-75
2021/03/07 12:07:20;;;;;;;1.30;1.10;;;16.70;99.90;;;;;;20488416;28;20215;-74
2021/03/07 12:17:24;;;;;;;0.57;0.57;;;16.50;99.90;;;;;;20497496;28;20857;-73
2021/03/07 12:27:37;;;;;;;1.27;0.27;;;15.90;99.90;;;;;;20497012;28;20205;-70
2021/03/07 12:37:41;;;;;;;12.27;2.23;;;15.80;99.90;;;;;;20496295;28;20220;-73
2021/03/07 12:47:43;;;;;;;2.43;2.13;;;15.80;99.90;;;;;;20482863;28;20237;-74
2021/03/07 12:58:02;;;;;;;5.33;1.53;;;15.60;99.90;;;;;;20542516;28;20242;-74
2021/03/07 13:08:05;;;;;;;1.23;0.70;;;15.60;99.90;;;;;;20550802;28;20242;-74
2021/03/07 13:18:09;;;;;;;6.33;1.70;;;15.90;99.90;;;;;;20543801;28;20231;-73
2021/03/07 13:28:27;;;;;;;2.40;2.20;;;17.30;99.90;;;;;;20608364;28;20660;-74
2021/03/07 13:38:31;;;;;;;2.77;1.47;;;17.50;99.90;;;;;;20584532;28;20216;-73
2021/03/07 13:48:33;;;;;;;3.23;1.50;;;17.80;99.90;;;;;;20496554;28;20291;-72
2021/03/07 13:58:46;;;;;;;5.50;2.70;;;19.30;99.90;;;;;;20464996;28;20570;-73
2021/03/07 14:08:49;;;;;;;2.10;1.67;;;17.90;99.90;;;;;;20493061;28;20232;-71
2021/03/07 14:18:53;;;;;;;0.63;0.63;;;16.90;99.90;;;;;;20524367;28;20578;-71
2021/03/07 14:29:09;;;;;;;2.33;1.63;;;16.50;99.90;;;;;;20543133;28;20653;-70
2021/03/07 14:39:13;;;;;;;0.90;0.70;;;15.90;99.90;;;;;;20543226;28;20228;-70
2021/03/07 14:49:16;;;;;;;0.77;0.73;;;15.70;99.90;;;;;;20543254;28;20662;-70
2021/03/07 14:59:34;;;;;;;8.23;1.33;;;16.10;99.90;;;;;;20538825;28;20267;-71
2021/03/07 15:09:37;;;;;;;1.97;1.87;;;16.00;99.90;;;;;;20541613;28;20282;-71
2021/03/07 15:19:44;;;;;;;2.03;1.83;;;15.80;99.90;;;;;;20571988;28;20300;-69
2021/03/07 15:29:53;;;;;;;1.50;1.40;;;15.40;99.90;;;;;;20489938;28;20420;-70
2021/03/07 15:39:57;;;;;;;1.97;1.07;;;15.50;99.90;;;;;;20510378;28;20310;-69
2021/03/07 15:50:00;;;;;;;0.67;0.67;;;15.40;99.90;;;;;;20455982;28;20208;-70
2021/03/07 16:00:20;;;;;;;1.10;0.50;;;15.30;99.90;;;;;;20496841;28;20232;-69
2021/03/07 16:10:22;;;;;;;1.33;0.83;;;15.80;99.90;;;;;;20533126;28;20294;-68
2021/03/07 16:20:26;;;;;;;2.00;1.43;;;15.20;99.90;;;;;;20558104;28;20227;-69
2021/03/07 16:30:42;;;;;;;2.53;1.43;;;15.10;99.90;;;;;;20611467;28;20230;-70
2021/03/07 16:40:46;;;;;;;1.03;0.93;;;15.30;99.90;;;;;;20610032;28;20301;-70
2021/03/07 16:50:48;;;;;;;2.57;2.37;;;14.80;99.90;;;;;;20611934;28;20346;-70
2021/03/07 17:01:05;;;;;;;1.70;1.60;;;14.50;99.90;;;;;;20608738;28;20246;-69
2021/03/07 17:11:09;;;;;;;1.43;1.33;;;14.60;99.90;;;;;;20608666;28;20286;-69
2021/03/07 17:21:16;;;;;;;4.20;2.33;;;14.40;99.90;;;;;;20561653;28;20246;-70
2021/03/07 17:31:27;;;;;;;2.07;1.87;;;14.00;99.90;;;;;;20529529;28;20199;-69
2021/03/07 17:41:31;;;;;;;2.30;2.13;;;13.70;99.90;;;;;;20528174;28;20584;-70
2021/03/07 17:51:34;;;;;;;0.87;0.63;;;13.50;99.90;;;;;;20517816;28;20193;-69
2021/03/07 18:01:47;;;;;;;1.10;1.03;;;13.60;99.90;;;;;;20482368;28;20247;-72
2021/03/07 18:11:51;;;;;;;1.27;1.17;;;13.30;99.90;;;;;;20505977;28;20193;-72
2021/03/07 18:21:56;;;;;;;7.10;2.90;;;13.30;99.90;;;;;;20505584;28;20314;-71
2021/03/07 18:32:10;;;;;;;7.77;2.33;;;13.50;99.90;;;;;;20540659;28;20578;-70
2021/03/07 18:42:14;;;;;;;3.00;1.67;;;13.60;99.90;;;;;;20556048;28;20951;-71
2021/03/07 18:52:18;;;;;;;1.60;1.20;;;13.50;99.90;;;;;;20538719;28;20238;-70
2021/03/07 19:02:34;;;;;;;2.17;1.93;;;13.40;99.90;;;;;;20538978;28;20334;-70
2021/03/07 19:12:52;;;;;;;3.23;2.03;;;13.20;99.90;;;;;;20539147;28;20208;-71
2021/03/07 19:22:56;;;;;;;2.37;1.37;;;13.20;99.90;;;;;;20586925;28;20310;-70
2021/03/07 19:32:59;;;;;;;1.00;0.97;;;13.20;99.90;;;;;;20616821;28;20203;-72
2021/03/07 19:43:04;;;;;;;1.17;1.00;;;13.20;99.90;;;;;;20619769;28;20227;-71
2021/03/07 19:53:08;;;;;;;1.67;1.23;;;13.00;99.90;;;;;;20618028;28;20211;-71
2021/03/07 20:03:25;;;;;;;2.13;1.63;;;13.00;99.90;;;;;;20631785;28;20226;-71
2021/03/07 20:13:28;;;;;;;2.00;1.27;;;13.00;99.90;;;;;;20613268;28;20516;-71
2021/03/07 20:23:31;;;;;;;2.13;2.03;;;12.90;99.90;;;;;;20558197;28;20235;-71
2021/03/07 20:33:46;;;;;;;1.17;1.10;;;12.90;99.90;;;;;;20537866;28;20788;-71
2021/03/07 20:43:49;;;;;;;1.13;0.70;;;12.80;99.90;;;;;;20530062;28;20224;-71
2021/03/07 20:53:55;;;;;;;1.37;1.27;;;12.80;99.90;;;;;;20532622;28;20196;-71
2021/03/07 21:04:11;;;;;;;5.30;2.27;;;12.80;99.90;;;;;;20531953;28;20267;-71
2021/03/07 21:14:15;;;;;;;1.13;1.03;;;12.70;99.90;;;;;;20530230;28;20542;-71
2021/03/07 21:24:19;;;;;;;2.53;1.23;;;12.60;99.90;;;;;;20594128;28;20299;-72
2021/03/07 21:34:33;;;;;;;1.27;1.23;;;12.40;99.90;;;;;;20616330;28;20223;-71
2021/03/07 21:44:37;;;;;;;8.27;1.53;;;12.50;99.90;;;;;;20610221;28;20223;-70
2021/03/07 21:54:44;;;;;;;2.40;2.07;;;12.70;99.90;;;;;;20610504;28;20196;-71
2021/03/07 22:04:54;;;;;;;1.73;1.63;;;12.60;99.90;;;;;;20613144;28;20276;-71
2021/03/07 22:14:58;;;;;;;1.50;1.40;;;12.50;99.90;;;;;;20624647;28;20568;-71
2021/03/07 22:25:01;;;;;;;2.43;1.50;;;12.60;99.90;;;;;;20520946;28;20271;-71
2021/03/07 22:35:19;;;;;;;3.07;1.47;;;12.50;99.90;;;;;;20542898;28;20196;-74
2021/03/07 22:45:22;;;;;;;1.80;1.47;;;12.30;99.90;;;;;;20544913;28;20273;-71
2021/03/07 22:55:25;;;;;;;1.77;1.63;;;12.20;99.90;;;;;;20542828;28;20211;-72
2021/03/07 23:05:39;;;;;;;2.57;1.67;;;12.20;99.90;;;;;;20539804;28;20239;-72
2021/03/07 23:15:42;;;;;;;0.73;0.70;;;12.00;99.90;;;;;;20540336;28;20204;-72
2021/03/07 23:25:46;;;;;;;2.23;0.70;;;11.80;99.90;;;;;;20615005;28;20228;-72
2021/03/07 23:36:02;;;;;;;0.37;0.37;;;11.80;99.90;;;;;;20618704;28;20196;-71
2021/03/07 23:46:05;;;;;;;1.23;1.03;;;11.80;99.90;;;;;;20619029;28;20233;-71
2021/03/07 23:56:09;;;;;;;1.07;0.67;;;11.70;99.90;;;;;;20617074;28;20191;-71
